Time;durP1;ratioP1;P1;durP2;ratioP2;P2;SDS_P1;SDS_P2;PMS_P1;PMS_P2;Temp;Humidity;BMP_temperature;BMP_pressure;BME280_temperature;BME280_humidity;BME280_pressure;Samples;Min_cycle;Max_cycle;Signal;HPM_P1;HPM_P2
2023/05/12 00:02:18;;;;;;;6.72;3.38;;;;;;;9.65;59.43;95200.06;5043550;28;20131;-73
2023/05/12 00:04:43;;;;;;;4.60;3.40;;;;;;;9.66;59.34;95198.84;5044630;28;20476;-73
2023/05/12 00:07:08;;;;;;;3.58;3.10;;;;;;;9.72;59.02;95208.13;5045163;28;20017;-73
2023/05/12 00:09:35;;;;;;;4.88;3.45;;;;;;;9.77;59.17;95201.38;5045983;28;20017;-73
2023/05/12 00:12:00;;;;;;;5.80;3.25;;;;;;;9.67;59.21;95205.09;5043665;28;20049;-73
2023/05/12 00:14:26;;;;;;;4.68;3.45;;;;;;;9.66;58.78;95198.06;5043995;28;20577;-74
2023/05/12 00:16:51;;;;;;;7.05;3.17;;;;;;;9.65;58.62;95197.31;5044193;28;20028;-74
2023/05/12 00:19:18;;;;;;;4.78;3.00;;;;;;;9.60;58.14;95200.53;5045058;28;20025;-74
2023/05/12 00:21:44;;;;;;;3.72;3.10;;;;;;;9.35;58.35;95203.00;5046686;28;20136;-74
2023/05/12 00:24:09;;;;;;;4.18;3.08;;;;;;;9.40;58.69;95200.53;5043357;28;20114;-73
2023/05/12 00:26:35;;;;;;;3.70;3.20;;;;;;;9.30;58.65;95201.56;5044764;28;20523;-74
2023/05/12 00:29:00;;;;;;;4.18;3.15;;;;;;;9.31;58.85;95192.13;5043110;28;20111;-72
2023/05/12 00:31:25;;;;;;;4.13;2.90;;;;;;;9.31;58.85;95197.59;5043723;28;20029;-73
2023/05/12 00:33:51;;;;;;;4.13;2.80;;;;;;;9.28;59.40;95195.69;5043168;28;20363;-74
2023/05/12 00:36:16;;;;;;;4.43;3.05;;;;;;;9.21;59.07;95196.59;5045176;28;20112;-74
2023/05/12 00:38:42;;;;;;;6.18;3.30;;;;;;;9.24;59.04;95201.28;5044895;28;20028;-74
2023/05/12 00:41:07;;;;;;;4.13;2.65;;;;;;;9.22;59.11;95202.88;5044718;28;20021;-73
2023/05/12 00:43:32;;;;;;;5.45;3.00;;;;;;;9.26;59.38;95201.59;5045306;28;20460;-74
2023/05/12 00:45:59;;;;;;;4.38;3.15;;;;;;;9.22;59.67;95202.88;5043099;28;20125;-74
2023/05/12 00:48:24;;;;;;;4.13;3.05;;;;;;;9.21;59.56;95204.84;5045732;28;20501;-74
2023/05/12 00:50:50;;;;;;;3.47;3.08;;;;;;;8.96;60.66;95207.28;5044331;28;20049;-73
2023/05/12 00:53:15;;;;;;;5.15;2.97;;;;;;;9.01;60.59;95213.06;5043702;28;20035;-73
2023/05/12 00:55:41;;;;;;;4.10;3.05;;;;;;;9.04;60.76;95209.47;5044401;28;20025;-74
2023/05/12 00:58:06;;;;;;;5.55;3.30;;;;;;;9.07;60.57;95218.06;5043380;28;20028;-74
2023/05/12 01:00:32;;;;;;;3.33;2.88;;;;;;;9.13;60.52;95213.63;5044691;28;20035;-73
2023/05/12 01:02:57;;;;;;;6.15;3.30;;;;;;;8.98;60.93;95215.84;5044124;28;20044;-74
2023/05/12 01:05:29;;;;;;;6.78;3.17;;;;;;;8.94;61.60;95217.88;5043845;28;20037;-74
2023/05/12 01:07:55;;;;;;;4.07;3.15;;;;;;;8.92;61.66;95215.56;5026019;28;20580;-73
2023/05/12 01:10:21;;;;;;;4.88;3.05;;;;;;;8.95;61.98;95216.72;5043693;28;20108;-73
2023/05/12 01:12:47;;;;;;;3.85;3.13;;;;;;;8.82;61.94;95222.00;5042695;28;20406;-73
2023/05/12 01:15:12;;;;;;;5.35;3.42;;;;;;;8.71;62.52;95222.19;5045786;28;20025;-73
2023/05/12 01:17:44;;;;;;;5.00;3.40;;;;;;;8.83;62.96;95218.09;5044616;28;20033;-73
2023/05/12 01:20:11;;;;;;;4.00;3.35;;;;;;;8.89;62.76;95229.31;5042525;28;20033;-73
2023/05/12 01:22:36;;;;;;;5.85;3.33;;;;;;;8.94;62.94;95226.88;5044921;28;20032;-73
2023/05/12 01:25:04;;;;;;;5.45;3.50;;;;;;;8.83;63.26;95231.00;5042400;28;20029;-73
2023/05/12 01:27:30;;;;;;;5.82;3.40;;;;;;;8.87;62.93;95223.50;5045091;28;20031;-73
2023/05/12 01:30:01;;;;;;;5.60;3.55;;;;;;;8.86;63.42;95227.44;5042811;28;20021;-72
2023/05/12 01:32:26;;;;;;;4.43;3.50;;;;;;;8.85;63.62;95237.63;5044503;28;20025;-73
2023/05/12 01:34:52;;;;;;;5.90;3.63;;;;;;;8.80;64.45;95231.84;5044331;28;20426;-72
2023/05/12 01:37:18;;;;;;;4.60;3.38;;;;;;;8.62;64.33;95227.44;5044084;28;20531;-74
2023/05/12 01:39:43;;;;;;;5.82;3.58;;;;;;;8.40;65.51;95220.75;5043130;28;20033;-72
2023/05/12 01:42:09;;;;;;;5.63;3.53;;;;;;;8.55;65.50;95229.53;5043729;28;20518;-73
2023/05/12 01:44:35;;;;;;;5.00;3.47;;;;;;;8.63;65.20;95233.69;5047534;28;20044;-73
2023/05/12 01:47:00;;;;;;;4.32;3.50;;;;;;;8.68;65.11;95241.44;5045911;28;20105;-73
2023/05/12 01:49:26;;;;;;;8.07;4.22;;;;;;;8.72;64.87;95229.25;5048280;28;20025;-73
2023/05/12 01:51:51;;;;;;;4.57;3.17;;;;;;;8.81;64.69;95236.13;5047632;28;20104;-73
2023/05/12 01:54:17;;;;;;;4.93;3.28;;;;;;;8.70;64.97;95228.09;5046463;28;20412;-73
2023/05/12 01:56:42;;;;;;;4.50;3.38;;;;;;;8.77;65.05;95231.50;5048366;28;20029;-73
2023/05/12 01:59:08;;;;;;;4.45;3.58;;;;;;;8.86;64.99;95224.69;5047212;28;20546;-73
2023/05/12 02:01:33;;;;;;;4.47;3.33;;;;;;;8.87;64.82;95231.72;5048489;28;20036;-73
2023/05/12 02:04:00;;;;;;;4.93;3.28;;;;;;;8.71;65.14;95226.91;5028731;28;20037;-74
2023/05/12 02:06:26;;;;;;;5.28;3.40;;;;;;;8.77;65.78;95225.22;5047019;28;20119;-74
2023/05/12 02:08:51;;;;;;;5.90;4.63;;;;;;;8.87;65.34;95220.75;5047075;28;20048;-73
2023/05/12 02:11:17;;;;;;;8.43;3.97;;;;;;;8.91;65.12;95230.47;5049654;28;20028;-74
2023/05/12 02:13:45;;;;;;;6.72;3.97;;;;;;;8.88;65.29;95234.03;5047706;28;20051;-73
2023/05/12 02:16:11;;;;;;;6.53;4.05;;;;;;;8.90;65.27;95225.41;5045898;28;20251;-73
2023/05/12 02:18:36;;;;;;;5.03;3.97;;;;;;;8.88;65.45;95225.81;5046686;28;20100;-74
2023/05/12 02:21:02;;;;;;;6.78;4.35;;;;;;;8.88;65.66;95225.81;5045176;28;20039;-73
2023/05/12 02:23:27;;;;;;;6.13;4.22;;;;;;;8.94;65.53;95229.63;5047890;28;20021;-73
2023/05/12 02:25:52;;;;;;;5.07;3.67;;;;;;;8.78;65.80;95232.28;5028562;28;20502;-73
2023/05/12 02:28:18;;;;;;;5.82;3.83;;;;;;;8.85;65.78;95232.16;5047624;28;20040;-74
2023/05/12 02:30:45;;;;;;;5.05;3.38;;;;;;;8.80;65.38;95218.91;5045735;28;20033;-73
2023/05/12 02:33:11;;;;;;;4.40;3.47;;;;;;;8.76;65.39;95223.69;5045682;28;20329;-73
2023/05/12 02:35:37;;;;;;;4.28;3.45;;;;;;;8.75;65.40;95217.44;5046231;28;20103;-73
2023/05/12 02:38:03;;;;;;;4.82;3.40;;;;;;;8.74;65.47;95226.84;5046685;28;20104;-73
2023/05/12 02:40:29;;;;;;;7.32;3.70;;;;;;;8.63;65.33;95223.50;5046619;28;20055;-73
2023/05/12 02:42:54;;;;;;;4.35;3.40;;;;;;;8.69;65.76;95216.34;5044780;28;20082;-73
2023/05/12 02:45:20;;;;;;;4.82;3.45;;;;;;;8.63;65.27;95220.78;5046409;28;20078;-73
2023/05/12 02:47:45;;;;;;;4.85;3.47;;;;;;;8.67;65.32;95223.47;5046619;28;20407;-74
2023/05/12 02:50:10;;;;;;;4.95;3.67;;;;;;;8.61;65.72;95222.38;5046712;28;20083;-74
2023/05/12 02:52:36;;;;;;;6.60;4.00;;;;;;;8.57;65.89;95227.91;5045473;28;20104;-73
2023/05/12 02:55:01;;;;;;;5.10;3.83;;;;;;;8.45;66.08;95221.06;5045720;28;20037;-73
2023/05/12 02:57:32;;;;;;;5.47;3.72;;;;;;;8.49;66.18;95224.53;5045934;28;20115;-73
2023/05/12 03:00:01;;;;;;;6.60;3.72;;;;;;;8.53;65.99;95221.72;5044828;28;20120;-72
2023/05/12 03:02:26;;;;;;;5.85;3.67;;;;;;;8.60;66.01;95229.03;5029438;28;20048;-72
2023/05/12 03:04:52;;;;;;;4.50;4.00;;;;;;;8.55;65.87;95226.81;5048177;28;20451;-75
2023/05/12 03:07:17;;;;;;;7.30;4.03;;;;;;;8.56;65.73;95234.59;5047659;28;20040;-74
2023/05/12 03:09:43;;;;;;;6.20;4.13;;;;;;;8.46;66.07;95227.31;5045266;28;20014;-73
2023/05/12 03:12:08;;;;;;;7.50;4.28;;;;;;;8.34;66.16;95225.91;5045037;28;20512;-72
2023/05/12 03:14:34;;;;;;;6.97;4.38;;;;;;;8.43;66.10;95228.94;5046771;28;20450;-73
2023/05/12 03:16:59;;;;;;;6.47;4.78;;;;;;;8.47;66.12;95228.84;5044885;28;20036;-73
2023/05/12 03:19:26;;;;;;;6.65;4.63;;;;;;;8.48;66.11;95225.69;5046816;28;20482;-73
2023/05/12 03:21:52;;;;;;;5.32;4.53;;;;;;;8.58;65.98;95234.94;5044232;28;20036;-72
2023/05/12 03:24:17;;;;;;;6.95;4.63;;;;;;;8.52;66.36;95239.34;5046410;28;20033;-73
2023/05/12 03:26:43;;;;;;;7.75;4.85;;;;;;;8.44;66.25;95246.16;5044562;28;20040;-72
2023/05/12 03:29:08;;;;;;;8.30;5.55;;;;;;;8.46;66.42;95241.78;5046155;28;20163;-72
2023/05/12 03:31:34;;;;;;;6.68;5.28;;;;;;;8.42;66.61;95237.53;5046136;28;20389;-73
2023/05/12 03:33:59;;;;;;;7.05;5.65;;;;;;;8.33;67.07;95243.53;5044467;28;20476;-72
2023/05/12 03:36:25;;;;;;;8.27;5.82;;;;;;;8.36;66.82;95239.22;5046337;28;20570;-72
2023/05/12 03:38:50;;;;;;;8.50;5.10;;;;;;;8.29;66.89;95236.56;5044104;28;20029;-72
2023/05/12 03:41:16;;;;;;;7.82;5.63;;;;;;;8.25;67.14;95231.13;5046517;28;20021;-73
2023/05/12 03:43:41;;;;;;;9.10;6.03;;;;;;;8.18;67.31;95242.19;5027505;28;20458;-73
2023/05/12 03:46:07;;;;;;;7.50;5.63;;;;;;;8.16;67.38;95247.31;5045015;28;20459;-72
2023/05/12 03:48:32;;;;;;;8.80;5.88;;;;;;;7.93;68.27;95254.28;5045997;28;20549;-73
2023/05/12 03:50:58;;;;;;;8.70;5.93;;;;;;;7.94;68.41;95253.09;5044558;28;20025;-73
2023/05/12 03:53:25;;;;;;;9.57;5.80;;;;;;;8.08;68.25;95245.84;5044405;28;20021;-73
2023/05/12 03:55:51;;;;;;;8.13;5.85;;;;;;;8.12;67.94;95247.34;5045357;28;20028;-73
2023/05/12 03:58:16;;;;;;;11.30;6.43;;;;;;;8.10;67.78;95249.75;5046161;28;20021;-73
2023/05/12 04:00:43;;;;;;;10.43;6.97;;;;;;;8.08;68.15;95251.31;5046891;28;20021;-73
2023/05/12 04:03:09;;;;;;;9.15;5.90;;;;;;;8.09;68.00;95253.66;5044765;28;20510;-73
2023/05/12 04:05:35;;;;;;;9.23;5.90;;;;;;;7.90;68.12;95257.06;5043503;28;20096;-74
2023/05/12 04:08:00;;;;;;;9.18;6.20;;;;;;;7.95;68.65;95265.56;5044885;28;20059;-73
2023/05/12 04:10:26;;;;;;;8.57;5.95;;;;;;;8.01;68.52;95257.69;5045407;28;20024;-72
2023/05/12 04:12:51;;;;;;;8.48;6.53;;;;;;;8.12;68.11;95258.31;5045403;28;20025;-73
2023/05/12 04:15:16;;;;;;;8.35;5.85;;;;;;;8.19;68.04;95266.41;5044129;28;20482;-73
2023/05/12 04:17:42;;;;;;;8.40;5.90;;;;;;;8.32;67.62;95265.88;5044794;28;20028;-72
2023/05/12 04:20:08;;;;;;;8.93;6.30;;;;;;;8.02;68.15;95258.44;5045001;28;20028;-73
2023/05/12 04:22:33;;;;;;;8.45;5.97;;;;;;;8.18;68.10;95261.34;5026351;28;20486;-73
2023/05/12 04:24:59;;;;;;;9.23;5.88;;;;;;;8.17;68.00;95265.28;5045457;28;20032;-72
2023/05/12 04:27:24;;;;;;;8.55;5.57;;;;;;;8.19;68.12;95265.63;5044633;28;20457;-72
2023/05/12 04:29:50;;;;;;;8.30;5.75;;;;;;;8.09;68.08;95266.59;5043848;28;20032;-73
2023/05/12 04:32:15;;;;;;;8.77;5.78;;;;;;;8.15;67.81;95264.94;5045272;28;20022;-73
2023/05/12 04:34:41;;;;;;;7.97;5.55;;;;;;;8.16;68.22;95259.03;5044685;28;20024;-72
2023/05/12 04:37:07;;;;;;;9.65;5.80;;;;;;;7.99;68.39;95262.81;5027609;28;20029;-72
2023/05/12 04:39:32;;;;;;;7.45;5.25;;;;;;;8.09;68.52;95270.09;5044395;28;20033;-72
2023/05/12 04:42:00;;;;;;;8.15;5.80;;;;;;;8.10;68.42;95270.88;5045628;28;20522;-72
2023/05/12 04:44:26;;;;;;;6.78;5.03;;;;;;;8.19;67.70;95262.91;5042937;28;20052;-73
2023/05/12 04:46:55;;;;;;;8.77;5.30;;;;;;;8.26;67.74;95271.03;5043774;28;20063;-73
2023/05/12 04:49:20;;;;;;;8.00;5.30;;;;;;;8.16;67.87;95271.97;5043466;28;20022;-72
2023/05/12 04:51:46;;;;;;;9.82;5.55;;;;;;;8.06;68.26;95264.66;5045110;28;20458;-72
2023/05/12 04:54:11;;;;;;;6.90;5.32;;;;;;;8.18;68.23;95270.34;5043882;28;20048;-72
2023/05/12 04:56:37;;;;;;;8.88;5.82;;;;;;;8.06;68.07;95265.44;5047092;28;20025;-72
2023/05/12 04:59:02;;;;;;;10.75;6.40;;;;;;;8.15;68.07;95273.16;5044164;28;20028;-72
2023/05/12 05:01:27;;;;;;;8.30;6.18;;;;;;;8.22;67.91;95276.56;5043960;28;20029;-72
2023/05/12 05:03:53;;;;;;;10.18;5.70;;;;;;;8.24;67.91;95278.88;5043777;28;20052;-72
2023/05/12 05:06:18;;;;;;;7.93;5.50;;;;;;;8.20;67.96;95272.66;5026510;28;20036;-74
2023/05/12 05:08:44;;;;;;;7.10;5.50;;;;;;;8.27;67.69;95274.56;5044726;28;20044;-73
2023/05/12 05:11:09;;;;;;;8.05;6.50;;;;;;;8.26;67.79;95273.78;5043484;28;20032;-72
2023/05/12 05:13:35;;;;;;;8.02;6.07;;;;;;;8.13;68.09;95273.53;5042856;28;20640;-72
2023/05/12 05:16:00;;;;;;;7.22;6.03;;;;;;;8.29;67.99;95275.69;5045333;28;20025;-74
2023/05/12 05:18:26;;;;;;;6.88;5.53;;;;;;;8.21;68.08;95271.50;5043706;28;20021;-74
2023/05/12 05:20:52;;;;;;;7.80;5.45;;;;;;;8.25;68.14;95272.22;5048228;28;20024;-72
2023/05/12 05:23:17;;;;;;;8.05;5.90;;;;;;;8.25;68.21;95274.94;5046854;28;20183;-74
2023/05/12 05:25:42;;;;;;;8.85;6.30;;;;;;;8.27;68.09;95280.81;5048665;28;20151;-73
2023/05/12 05:28:08;;;;;;;8.02;5.93;;;;;;;8.19;68.19;95288.31;5047133;28;20033;-72
2023/05/12 05:30:34;;;;;;;8.13;6.25;;;;;;;8.14;69.34;95293.50;5047029;28;20025;-72
2023/05/12 05:32:59;;;;;;;9.73;6.38;;;;;;;8.21;68.78;95285.97;5047344;28;20032;-74
2023/05/12 05:35:25;;;;;;;7.45;6.10;;;;;;;8.30;68.52;95290.13;5048046;28;20029;-73
2023/05/12 05:37:52;;;;;;;8.60;6.18;;;;;;;8.39;67.85;95293.19;5047757;28;20101;-73
2023/05/12 05:40:18;;;;;;;6.85;5.20;;;;;;;8.30;67.55;95279.97;5047948;28;20033;-72
2023/05/12 05:42:43;;;;;;;6.88;5.38;;;;;;;8.47;67.39;95283.66;5047466;28;20032;-80
2023/05/12 05:45:09;;;;;;;7.30;5.00;;;;;;;8.47;66.99;95280.91;5046640;28;20393;-73
2023/05/12 05:47:36;;;;;;;8.20;5.65;;;;;;;8.29;67.47;95285.84;5047149;28;20472;-73
2023/05/12 05:50:02;;;;;;;8.45;5.88;;;;;;;8.24;68.26;95292.56;5048304;28;20107;-73
2023/05/12 05:52:28;;;;;;;7.85;5.68;;;;;;;8.16;68.41;95288.41;5049342;28;20028;-73
2023/05/12 05:54:53;;;;;;;7.30;5.22;;;;;;;8.34;67.64;95288.13;5049540;28;20435;-74
2023/05/12 05:57:18;;;;;;;7.47;5.68;;;;;;;8.31;67.97;95284.25;5046990;28;20226;-74
2023/05/12 05:59:44;;;;;;;7.97;6.53;;;;;;;8.36;67.83;95291.25;5047233;28;20036;-73
2023/05/12 06:02:09;;;;;;;8.13;5.57;;;;;;;8.59;67.47;95296.00;5047116;28;20048;-73
2023/05/12 06:04:34;;;;;;;7.10;5.50;;;;;;;8.60;67.16;95292.88;5046655;28;20032;-73
2023/05/12 06:07:00;;;;;;;7.30;5.22;;;;;;;8.62;66.44;95295.97;5048096;28;20056;-74
2023/05/12 06:09:26;;;;;;;7.97;6.07;;;;;;;8.64;66.37;95292.78;5048107;28;20403;-74
2023/05/12 06:11:51;;;;;;;7.25;5.47;;;;;;;8.57;66.63;95301.91;5047925;28;20029;-74
2023/05/12 06:14:16;;;;;;;6.68;5.53;;;;;;;8.56;66.69;95305.84;5046241;28;20056;-74
2023/05/12 06:16:42;;;;;;;8.82;5.63;;;;;;;8.63;66.35;95300.25;5048316;28;20065;-75
2023/05/12 06:19:08;;;;;;;9.23;6.00;;;;;;;8.64;66.77;95304.53;5047210;28;20027;-74
2023/05/12 06:21:33;;;;;;;8.80;5.63;;;;;;;8.58;66.61;95306.19;5046820;28;20056;-72
2023/05/12 06:23:58;;;;;;;6.63;5.15;;;;;;;8.67;66.24;95311.94;5046709;28;20094;-74
2023/05/12 06:26:25;;;;;;;6.57;5.53;;;;;;;8.83;66.10;95302.28;5046326;28;20025;-74
2023/05/12 06:28:51;;;;;;;9.65;5.70;;;;;;;8.96;65.78;95311.47;5047545;28;20025;-75
2023/05/12 06:31:16;;;;;;;8.43;5.30;;;;;;;8.91;65.83;95312.72;5045063;28;20402;-73
2023/05/12 06:33:41;;;;;;;6.88;5.40;;;;;;;9.07;65.39;95319.53;5047694;28;20057;-73
2023/05/12 06:36:09;;;;;;;6.95;5.45;;;;;;;9.03;65.00;95314.09;5047015;28;20388;-73
2023/05/12 06:38:34;;;;;;;6.85;5.20;;;;;;;8.92;64.75;95319.75;5048278;28;20063;-76
2023/05/12 06:41:00;;;;;;;12.25;5.38;;;;;;;9.12;64.89;95322.56;5045575;28;20043;-73
2023/05/12 06:43:25;;;;;;;6.78;5.40;;;;;;;9.12;64.94;95324.50;5046459;28;20100;-75
2023/05/12 06:45:51;;;;;;;9.38;5.38;;;;;;;9.11;64.81;95322.97;5046778;28;20383;-74
2023/05/12 06:48:16;;;;;;;8.02;5.10;;;;;;;9.05;64.44;95323.44;5049195;28;20104;-73
2023/05/12 06:50:42;;;;;;;8.60;5.43;;;;;;;8.91;65.17;95312.72;5046113;28;20113;-74
2023/05/12 06:53:07;;;;;;;6.53;5.25;;;;;;;8.92;64.99;95325.25;5046999;28;20025;-74
2023/05/12 06:55:33;;;;;;;7.95;5.50;;;;;;;9.04;64.79;95326.63;5046843;28;20025;-74
2023/05/12 06:57:58;;;;;;;7.47;5.50;;;;;;;9.11;64.66;95321.00;5046937;28;20055;-75
2023/05/12 07:00:24;;;;;;;7.72;6.10;;;;;;;9.08;64.17;95316.38;5047219;28;20024;-73
2023/05/12 07:02:50;;;;;;;19.10;7.57;;;;;;;9.05;64.31;95314.44;5044672;28;20041;-74
2023/05/12 07:05:17;;;;;;;17.17;6.32;;;;;;;8.92;64.82;95318.97;5047243;28;20108;-73
2023/05/12 07:07:44;;;;;;;13.60;7.00;;;;;;;9.02;64.54;95320.78;5045390;28;20100;-75
2023/05/12 07:10:10;;;;;;;10.02;5.75;;;;;;;9.07;64.46;95323.06;5046499;28;20609;-74
2023/05/12 07:12:37;;;;;;;10.85;6.20;;;;;;;9.22;64.59;95316.09;5045917;28;20037;-74
2023/05/12 07:15:03;;;;;;;10.20;5.50;;;;;;;9.38;63.77;95326.41;5046048;28;20409;-73
2023/05/12 07:17:28;;;;;;;7.50;5.65;;;;;;;9.51;63.18;95329.31;5047342;28;20067;-73
2023/05/12 07:19:55;;;;;;;7.47;5.47;;;;;;;9.54;62.15;95321.03;5045810;28;20104;-74
2023/05/12 07:22:20;;;;;;;6.75;5.30;;;;;;;9.59;62.39;95336.25;5046811;28;20538;-73
2023/05/12 07:24:46;;;;;;;8.52;5.90;;;;;;;9.55;62.36;95328.06;5045894;28;20029;-74
2023/05/12 07:27:11;;;;;;;8.20;5.55;;;;;;;9.54;61.81;95333.97;5044894;28;20440;-74
2023/05/12 07:29:37;;;;;;;8.23;5.70;;;;;;;9.40;62.43;95328.72;5046553;28;20029;-74
2023/05/12 07:32:03;;;;;;;8.10;5.63;;;;;;;9.52;61.96;95328.91;5044356;28;20029;-74
2023/05/12 07:34:31;;;;;;;8.20;5.72;;;;;;;9.63;61.87;95325.94;5045710;28;20123;-74
2023/05/12 07:36:58;;;;;;;6.57;5.20;;;;;;;9.73;61.47;95322.22;5043831;28;20025;-73
2023/05/12 07:39:23;;;;;;;7.63;5.25;;;;;;;9.70;61.37;95327.81;5044213;28;20310;-73
2023/05/12 07:41:50;;;;;;;7.63;5.75;;;;;;;9.79;62.12;95337.00;5047382;28;20084;-74
2023/05/12 07:44:16;;;;;;;11.38;5.65;;;;;;;9.88;61.56;95333.72;5046976;28;20044;-74
2023/05/12 07:46:42;;;;;;;17.23;6.47;;;;;;;10.00;61.73;95335.81;5044067;28;20056;-73
2023/05/12 07:49:08;;;;;;;10.93;6.05;;;;;;;9.63;62.64;95333.41;5045360;28;20087;-74
2023/05/12 07:51:33;;;;;;;7.97;5.25;;;;;;;9.81;62.25;95339.38;5028744;28;20021;-75
2023/05/12 07:53:59;;;;;;;8.15;5.22;;;;;;;9.80;62.29;95327.56;5044044;28;20408;-74
2023/05/12 07:56:25;;;;;;;8.52;5.35;;;;;;;10.02;61.75;95332.66;5046741;28;20025;-74
2023/05/12 07:58:50;;;;;;;8.27;5.25;;;;;;;9.71;62.03;95326.59;5044155;28;20074;-74
2023/05/12 08:01:16;;;;;;;6.65;5.03;;;;;;;10.00;62.24;95329.56;5044659;28;20116;-74
2023/05/12 08:03:41;;;;;;;9.02;5.50;;;;;;;9.69;61.52;95318.81;5044276;28;20495;-73
2023/05/12 08:06:06;;;;;;;9.13;5.38;;;;;;;9.63;62.20;95312.22;5027932;28;20024;-74
2023/05/12 08:08:33;;;;;;;8.23;6.47;;;;;;;9.82;62.59;95316.97;5044389;28;20371;-74
2023/05/12 08:10:58;;;;;;;10.13;6.32;;;;;;;10.18;62.57;95318.22;5043828;28;20090;-74
2023/05/12 08:13:25;;;;;;;6.57;5.05;;;;;;;10.48;61.25;95330.94;5044595;28;20473;-74
2023/05/12 08:15:50;;;;;;;8.13;5.30;;;;;;;10.78;60.63;95324.34;5044879;28;20511;-74
2023/05/12 08:18:16;;;;;;;8.98;5.30;;;;;;;10.76;59.79;95322.03;5044761;28;20056;-73
2023/05/12 08:20:42;;;;;;;8.30;5.07;;;;;;;11.05;59.14;95324.09;5043625;28;20056;-73
2023/05/12 08:23:08;;;;;;;6.80;5.10;;;;;;;11.29;58.95;95324.69;5045366;28;20032;-73
2023/05/12 08:25:35;;;;;;;7.20;5.63;;;;;;;11.47;58.01;95324.22;5043666;28;20048;-74
2023/05/12 08:28:01;;;;;;;8.30;6.13;;;;;;;11.65;57.34;95328.06;5045265;28;20082;-74
2023/05/12 08:30:27;;;;;;;8.65;6.03;;;;;;;11.76;57.54;95325.03;5027532;28;20029;-74
2023/05/12 08:32:53;;;;;;;7.88;5.28;;;;;;;11.75;55.52;95326.22;5043566;28;20051;-74
2023/05/12 08:35:19;;;;;;;6.60;5.60;;;;;;;11.91;56.00;95326.19;5044556;28;20040;-74
2023/05/12 08:37:44;;;;;;;9.88;6.18;;;;;;;11.92;55.14;95329.72;5029545;28;20021;-74
2023/05/12 08:40:16;;;;;;;7.97;5.78;;;;;;;11.59;54.96;95334.56;5044608;28;20029;-73
2023/05/12 08:42:43;;;;;;;6.85;5.15;;;;;;;11.52;55.25;95323.69;5044673;28;20170;-74
2023/05/12 08:45:12;;;;;;;9.05;5.68;;;;;;;11.07;56.43;95327.22;5043756;28;20086;-75
2023/05/12 08:47:38;;;;;;;8.20;6.20;;;;;;;11.17;56.73;95320.66;5044436;28;20087;-74
2023/05/12 08:50:04;;;;;;;9.30;6.20;;;;;;;11.50;56.23;95329.66;5025110;28;20116;-74
2023/05/12 08:52:33;;;;;;;8.55;5.90;;;;;;;11.65;55.58;95327.31;5044259;28;20029;-73
2023/05/12 08:54:58;;;;;;;8.95;6.32;;;;;;;11.72;55.58;95326.34;5042846;28;20032;-74
2023/05/12 08:57:25;;;;;;;10.32;5.95;;;;;;;11.93;55.89;95321.06;5045281;28;20021;-74
2023/05/12 08:59:54;;;;;;;8.98;5.88;;;;;;;12.21;55.56;95327.75;5043171;28;20040;-74
2023/05/12 09:02:22;;;;;;;10.25;5.68;;;;;;;12.31;53.81;95328.63;5043536;28;20044;-74
2023/05/12 09:04:51;;;;;;;9.25;5.47;;;;;;;12.51;53.63;95322.94;5026905;28;20155;-75
2023/05/12 09:07:18;;;;;;;7.65;4.95;;;;;;;12.43;51.90;95310.53;5042969;28;20426;-75
2023/05/12 09:09:47;;;;;;;7.82;5.22;;;;;;;12.58;51.89;95319.19;5028046;28;20029;-75
2023/05/12 09:12:15;;;;;;;7.38;4.45;;;;;;;12.63;51.63;95315.88;5042982;28;20104;-74
2023/05/12 09:14:44;;;;;;;7.68;4.75;;;;;;;12.47;52.04;95312.00;5045600;28;20033;-73
2023/05/12 09:17:11;;;;;;;6.43;5.10;;;;;;;12.60;51.56;95311.22;5043048;28;20131;-74
2023/05/12 09:19:36;;;;;;;7.60;4.30;;;;;;;12.75;51.73;95313.09;5044787;28;20029;-74
2023/05/12 09:22:01;;;;;;;8.75;5.10;;;;;;;13.03;51.66;95305.16;5044632;28;20029;-74
2023/05/12 09:24:37;;;;;;;6.25;4.60;;;;;;;13.14;50.74;95293.75;5042326;28;20142;-74
2023/05/12 09:27:03;;;;;;;6.45;4.45;;;;;;;13.27;49.87;95295.28;5044058;28;20468;-74
2023/05/12 09:29:29;;;;;;;6.38;4.00;;;;;;;13.37;50.17;95293.41;5042112;28;20051;-73
2023/05/12 09:32:00;;;;;;;7.80;4.00;;;;;;;13.54;48.43;95296.75;5043830;28;20029;-75
2023/05/12 09:34:37;;;;;;;5.25;3.75;;;;;;;13.57;48.70;95298.63;5046251;28;20035;-74
2023/05/12 09:37:04;;;;;;;4.78;4.05;;;;;;;13.66;49.09;95292.41;5043806;28;20025;-74
2023/05/12 09:39:30;;;;;;;6.15;4.30;;;;;;;13.93;48.28;95291.81;5043024;28;20041;-75
2023/05/12 09:41:55;;;;;;;7.43;3.70;;;;;;;14.02;48.05;95298.19;5044095;28;20254;-74
2023/05/12 09:44:22;;;;;;;7.45;3.85;;;;;;;14.07;48.38;95299.63;5045405;28;20541;-74
2023/05/12 09:46:47;;;;;;;6.68;3.40;;;;;;;14.17;48.61;95300.47;5042625;28;20029;-74
2023/05/12 09:49:25;;;;;;;4.53;3.97;;;;;;;14.20;46.71;95299.53;5043841;28;20428;-74
2023/05/12 09:51:58;;;;;;;5.93;3.95;;;;;;;13.17;47.74;95295.63;5026260;28;20025;-74
2023/05/12 09:54:25;;;;;;;7.93;4.10;;;;;;;13.13;48.39;95297.72;5043027;28;20017;-75
2023/05/12 09:56:51;;;;;;;6.50;4.05;;;;;;;13.32;48.76;95293.19;5043658;28;20463;-75
2023/05/12 09:59:17;;;;;;;5.55;4.10;;;;;;;13.14;48.60;95289.00;5042632;28;20112;-75
2023/05/12 10:01:43;;;;;;;5.90;3.70;;;;;;;13.54;49.10;95292.00;5045113;28;20464;-74
2023/05/12 10:04:08;;;;;;;7.72;4.30;;;;;;;13.95;48.55;95294.94;5042272;28;20057;-74
2023/05/12 10:06:37;;;;;;;9.77;4.35;;;;;;;14.23;47.75;95284.81;5048635;28;20103;-75
2023/05/12 10:09:24;;;;;;;4.68;3.72;;;;;;;14.52;47.21;95279.78;5046539;28;20024;-75
2023/05/12 10:11:50;;;;;;;6.10;4.07;;;;;;;14.72;45.09;95286.91;5047585;28;20033;-75
2023/05/12 10:14:16;;;;;;;7.38;4.93;;;;;;;14.46;46.27;95289.84;5047059;28;20028;-75
2023/05/12 10:16:46;;;;;;;8.13;4.88;;;;;;;14.59;46.30;95285.03;5047477;28;20029;-74
2023/05/12 10:19:12;;;;;;;8.93;5.40;;;;;;;14.92;45.64;95290.06;5048578;28;20082;-73
2023/05/12 10:21:38;;;;;;;6.32;5.00;;;;;;;14.87;45.64;95282.38;5046799;28;20103;-74
2023/05/12 10:24:04;;;;;;;5.88;5.20;;;;;;;15.25;45.64;95276.44;5046571;28;20025;-74
2023/05/12 10:26:35;;;;;;;7.60;5.18;;;;;;;15.24;43.93;95288.75;5047395;28;20036;-73
2023/05/12 10:29:01;;;;;;;6.32;4.78;;;;;;;15.44;44.02;95274.47;5051494;28;20108;-73
2023/05/12 10:31:27;;;;;;;6.28;4.38;;;;;;;15.54;43.58;95278.00;5046703;28;20148;-74
2023/05/12 10:33:57;;;;;;;7.20;4.28;;;;;;;15.30;43.14;95281.38;5029061;28;20648;-74
2023/05/12 10:36:23;;;;;;;6.07;3.80;;;;;;;15.58;43.28;95273.88;5030328;28;20488;-74
2023/05/12 10:38:48;;;;;;;6.35;4.15;;;;;;;15.95;44.03;95281.44;5046649;28;20029;-75
2023/05/12 10:41:15;;;;;;;6.90;4.10;;;;;;;16.22;43.31;95277.84;5048153;28;20411;-72
2023/05/12 10:43:44;;;;;;;6.38;4.20;;;;;;;16.48;42.54;95278.25;5046548;28;20033;-73
2023/05/12 10:46:16;;;;;;;6.13;4.10;;;;;;;16.43;40.98;95279.66;5046270;28;20027;-74
2023/05/12 10:49:08;;;;;;;8.85;4.38;;;;;;;16.25;41.42;95276.94;5045801;28;20552;-73
2023/05/12 10:51:57;;;;;;;5.80;3.90;;;;;;;16.61;42.41;95265.72;5045189;28;20048;-74
2023/05/12 10:54:24;;;;;;;5.55;3.58;;;;;;;16.53;40.34;95274.84;5047467;28;20037;-73
2023/05/12 10:56:49;;;;;;;6.07;4.22;;;;;;;16.44;40.95;95268.06;5044901;28;20032;-74
2023/05/12 10:59:20;;;;;;;8.77;4.28;;;;;;;16.90;40.82;95269.94;5045982;28;20039;-74
2023/05/12 11:02:00;;;;;;;6.07;4.65;;;;;;;16.98;40.33;95268.38;5045787;28;20029;-75
2023/05/12 11:04:45;;;;;;;9.30;4.47;;;;;;;16.73;41.25;95264.00;5046331;28;20037;-74
2023/05/12 11:07:11;;;;;;;8.90;4.03;;;;;;;16.89;41.00;95265.63;5047591;28;20036;-75
2023/05/12 11:09:39;;;;;;;6.80;3.72;;;;;;;16.61;40.30;95262.94;5044996;28;20088;-75
2023/05/12 11:12:06;;;;;;;15.80;4.95;;;;;;;16.52;40.34;95262.97;5045425;28;20063;-75
2023/05/12 11:14:32;;;;;;;15.90;5.55;;;;;;;16.39;40.89;95274.25;5028969;28;20389;-75
2023/05/12 11:16:58;;;;;;;7.30;3.97;;;;;;;15.96;41.58;95267.13;5044242;28;20036;-75
2023/05/12 11:19:23;;;;;;;6.88;4.22;;;;;;;16.13;41.98;95268.31;5045917;28;20025;-75
2023/05/12 11:21:48;;;;;;;4.75;3.75;;;;;;;15.85;41.93;95255.72;5046342;28;20025;-75
2023/05/12 11:24:15;;;;;;;7.80;5.03;;;;;;;16.07;42.09;95266.63;5048737;28;20125;-75
2023/05/12 11:26:41;;;;;;;6.03;4.78;;;;;;;16.11;41.23;95258.91;5046108;28;20031;-75
2023/05/12 11:29:06;;;;;;;9.98;4.45;;;;;;;15.90;41.72;95244.03;5046775;28;20025;-74
2023/05/12 11:31:31;;;;;;;4.95;3.58;;;;;;;15.78;42.25;95269.91;5046188;28;20458;-75
2023/05/12 11:34:06;;;;;;;6.13;4.00;;;;;;;15.55;42.39;95274.03;5046333;28;20029;-75
2023/05/12 11:36:38;;;;;;;4.93;3.92;;;;;;;15.48;43.25;95271.53;5028685;28;20028;-75